Alto Pass, Illinois
Current Conditions -  °F | °C
As of 3:33 AM on Thursday 23 Oct 2014 (Local Time) from KMDH Reporting Station
Haze Haze  
Wind Chill: 34°   Ceiling: Unl
Heat Index: 34°   Visibility: 1.5mi
Dew Point: 34°   Wind: 0mph
Humidity: 100%   Direction: NA
Pressure: 30.22"   Gusts: NA
Location:  37.57°N, 89.32°W
Report Text: KMDH 230833Z AUTO 00000KT 1 1/2SM BR SCT002 01/01 A3022 RMK AO2 T00110011
Loading
Personal Weather Stations






























Interactive Weather Map
Tropical Storm Tracking
New forecast layout! Learn more

10-Day Weather Forecast

Advertisements
Track Severe Weather on mobile